createdAt,value
2018-09-20T00:02:06.840Z,19.00
2018-09-20T00:04:36.376Z,18.90
2018-09-20T00:07:04.590Z,18.90
2018-09-20T00:09:32.795Z,18.90
2018-09-20T00:12:00.941Z,18.90
2018-09-20T00:14:29.144Z,18.80
2018-09-20T00:16:57.332Z,18.80
2018-09-20T00:19:26.918Z,18.80
2018-09-20T00:21:55.228Z,18.80
2018-09-20T00:24:24.319Z,18.80
2018-09-20T00:26:53.030Z,18.80
2018-09-20T00:29:22.816Z,18.80
2018-09-20T00:31:51.161Z,18.80
2018-09-20T00:34:19.334Z,18.80
2018-09-20T00:36:47.508Z,18.80
2018-09-20T00:39:15.663Z,18.70
2018-09-20T00:41:43.828Z,18.70
2018-09-20T00:44:13.231Z,18.70
2018-09-20T00:46:41.386Z,18.80
2018-09-20T00:49:09.537Z,18.80
2018-09-20T00:51:37.761Z,18.80
2018-09-20T00:54:05.927Z,18.80
2018-09-20T00:56:34.090Z,18.80
2018-09-20T00:59:04.025Z,18.80
2018-09-20T01:01:32.142Z,18.80
2018-09-20T01:04:00.981Z,18.80
2018-09-20T01:06:29.089Z,18.80
2018-09-20T01:08:57.257Z,18.70
2018-09-20T01:11:25.395Z,18.70
2018-09-20T01:13:53.584Z,18.70
2018-09-20T01:16:21.721Z,18.60
2018-09-20T01:18:49.873Z,18.60
2018-09-20T01:21:18.052Z,18.60
2018-09-20T01:23:46.189Z,18.60
2018-09-20T01:26:14.402Z,18.50
2018-09-20T01:28:42.640Z,18.50
2018-09-20T01:31:10.830Z,18.50
2018-09-20T01:33:39.005Z,18.50
2018-09-20T01:36:07.143Z,18.50
2018-09-20T01:38:37.403Z,18.50
2018-09-20T01:41:05.714Z,18.50
2018-09-20T01:43:33.860Z,18.40
2018-09-20T01:46:02.267Z,18.40
2018-09-20T01:48:30.404Z,18.40
2018-09-20T01:50:58.555Z,18.40
2018-09-20T01:53:26.696Z,18.40
2018-09-20T01:55:55.730Z,18.50
2018-09-20T01:58:23.889Z,18.50
2018-09-20T02:00:53.652Z,18.50
2018-09-20T02:03:21.856Z,18.40
2018-09-20T02:05:50.600Z,18.40
2018-09-20T02:08:18.813Z,18.40
2018-09-20T02:10:49.297Z,18.40
2018-09-20T02:13:23.253Z,18.40
2018-09-20T02:15:51.461Z,18.40
2018-09-20T02:18:19.671Z,18.40
2018-09-20T02:20:48.217Z,18.40
2018-09-20T02:23:16.352Z,18.30
2018-09-20T02:25:44.531Z,18.40
2018-09-20T02:28:13.462Z,18.40
2018-09-20T02:30:42.342Z,18.50
2018-09-20T02:33:10.474Z,18.50
2018-09-20T02:35:38.796Z,18.50
2018-09-20T02:38:06.969Z,18.50
2018-09-20T02:40:35.138Z,18.50
2018-09-20T02:43:04.463Z,18.40
2018-09-20T02:45:32.643Z,18.40
2018-09-20T02:48:00.855Z,18.30
2018-09-20T02:50:29.062Z,18.30
2018-09-20T02:52:58.420Z,18.20
2018-09-20T02:55:26.604Z,18.20
2018-09-20T02:57:54.776Z,18.20
2018-09-20T03:00:22.923Z,18.20
2018-09-20T03:02:51.125Z,18.10
2018-09-20T03:05:20.354Z,18.10
2018-09-20T03:07:49.141Z,18.10
2018-09-20T03:10:17.351Z,18.10
2018-09-20T03:12:46.326Z,18.00
2018-09-20T03:15:15.304Z,18.10
2018-09-20T03:17:43.453Z,18.00
2018-09-20T03:20:11.635Z,18.00
2018-09-20T03:22:39.768Z,18.00
2018-09-20T03:25:08.175Z,18.00
2018-09-20T03:27:36.272Z,18.00
2018-09-20T03:30:04.451Z,18.00
2018-09-20T03:32:32.680Z,17.90
2018-09-20T03:35:00.799Z,17.90
2018-09-20T03:37:28.933Z,17.90
2018-09-20T03:39:57.060Z,17.90
2018-09-20T03:42:25.191Z,17.80
2018-09-20T03:44:54.385Z,17.80
2018-09-20T03:47:22.539Z,17.80
2018-09-20T03:49:50.696Z,17.80
2018-09-20T03:52:18.869Z,17.70
2018-09-20T03:54:47.051Z,17.70
2018-09-20T03:57:15.217Z,17.70
2018-09-20T03:59:43.391Z,17.70
2018-09-20T04:02:11.535Z,17.70
2018-09-20T04:04:39.804Z,17.60
2018-09-20T04:07:08.529Z,17.60
2018-09-20T04:09:36.731Z,17.60
2018-09-20T04:12:04.942Z,17.60
2018-09-20T04:14:34.060Z,17.60
2018-09-20T04:17:02.240Z,17.70
2018-09-20T04:19:30.705Z,17.70
2018-09-20T04:21:58.876Z,17.80
2018-09-20T04:24:27.010Z,17.80
2018-09-20T04:26:55.176Z,17.80
2018-09-20T04:29:23.427Z,17.80
2018-09-20T04:31:51.720Z,17.80
2018-09-20T04:34:19.800Z,17.80
2018-09-20T04:36:47.971Z,17.80
2018-09-20T04:39:16.131Z,17.80
2018-09-20T04:41:45.643Z,17.80
2018-09-20T04:44:13.804Z,17.80
2018-09-20T04:46:42.664Z,17.80
2018-09-20T04:49:10.806Z,17.70
2018-09-20T04:51:38.976Z,17.80
2018-09-20T04:54:07.127Z,17.80
2018-09-20T04:56:35.322Z,17.70
2018-09-20T04:59:03.534Z,17.80
2018-09-20T05:02:01.182Z,17.80
2018-09-20T05:04:30.204Z,17.70
2018-09-20T05:07:00.382Z,17.80
2018-09-20T05:09:28.609Z,17.80
2018-09-20T05:11:56.932Z,17.80
2018-09-20T05:14:25.094Z,17.80
2018-09-20T05:16:53.272Z,17.80
2018-09-20T05:19:21.400Z,17.90
2018-09-20T05:21:49.560Z,17.90
2018-09-20T05:24:18.306Z,18.00
2018-09-20T05:26:46.496Z,18.00
2018-09-20T05:29:15.264Z,18.00
2018-09-20T05:31:43.495Z,18.00
2018-09-20T05:34:11.639Z,18.10
2018-09-20T05:36:39.796Z,18.20
2018-09-20T05:39:09.427Z,18.20
2018-09-20T05:41:37.642Z,18.20
2018-09-20T05:44:05.808Z,18.30
2018-09-20T05:46:34.041Z,18.30
2018-09-20T05:49:02.243Z,18.30
2018-09-20T05:51:30.456Z,18.40
2018-09-20T05:53:58.660Z,18.50
2018-09-20T05:56:27.411Z,18.60
2018-09-20T05:58:55.624Z,18.70
2018-09-20T06:01:23.782Z,18.80
2018-09-20T06:03:51.923Z,18.80
2018-09-20T06:06:20.095Z,18.90
2018-09-20T06:08:48.253Z,19.00
2018-09-20T06:11:16.456Z,19.10
2018-09-20T06:13:44.627Z,19.20
2018-09-20T06:16:13.613Z,19.30
2018-09-20T06:18:41.777Z,19.50
2018-09-20T06:21:09.971Z,19.60
2018-09-20T06:23:38.185Z,19.70
2018-09-20T06:26:06.317Z,19.90
2018-09-20T06:28:34.484Z,20.00
2018-09-20T06:31:02.661Z,20.10
2018-09-20T06:33:30.886Z,20.30
2018-09-20T06:35:59.136Z,20.40
2018-09-20T06:38:28.189Z,20.40
2018-09-20T06:40:56.392Z,20.50
2018-09-20T06:43:24.610Z,20.50
2018-09-20T06:45:54.284Z,20.50
2018-09-20T06:48:22.960Z,20.50
2018-09-20T06:50:51.160Z,20.60
2018-09-20T06:53:20.707Z,20.60
2018-09-20T06:55:48.890Z,20.60
2018-09-20T06:58:17.509Z,20.60
2018-09-20T07:00:45.759Z,20.70
2018-09-20T07:03:13.984Z,20.70
2018-09-20T07:05:42.092Z,20.80
2018-09-20T07:08:10.275Z,20.80
2018-09-20T07:10:38.876Z,20.90
2018-09-20T07:13:07.642Z,20.90
2018-09-20T07:15:36.576Z,21.00
2018-09-20T07:18:04.782Z,21.10
2018-09-20T07:20:32.963Z,21.20
2018-09-20T07:23:01.344Z,21.40
2018-09-20T07:25:29.635Z,21.60
2018-09-20T07:27:57.758Z,21.80
2018-09-20T07:30:25.900Z,21.90
2018-09-20T07:32:54.151Z,22.00
2018-09-20T07:35:22.370Z,22.10
2018-09-20T07:37:50.584Z,22.30
2018-09-20T07:40:18.718Z,22.30
2018-09-20T07:42:46.918Z,22.40
2018-09-20T07:45:15.108Z,22.50
2018-09-20T07:47:43.329Z,22.50
2018-09-20T07:50:11.646Z,22.60
2018-09-20T07:52:40.452Z,22.60
2018-09-20T07:55:08.644Z,22.60
2018-09-20T07:57:38.868Z,22.70
2018-09-20T08:00:07.053Z,22.70
2018-09-20T08:02:36.501Z,22.70
2018-09-20T08:05:05.427Z,22.70
2018-09-20T08:07:33.557Z,22.80
2018-09-20T08:10:01.767Z,22.80
2018-09-20T08:12:30.031Z,23.10
2018-09-20T08:14:58.184Z,22.90
2018-09-20T08:17:28.801Z,23.00
2018-09-20T08:19:57.025Z,23.10
2018-09-20T08:22:25.194Z,23.10
2018-09-20T08:24:53.355Z,23.20
2018-09-20T08:27:22.034Z,23.30
2018-09-20T08:29:50.199Z,23.30
2018-09-20T08:32:18.536Z,23.40
2018-09-20T08:34:48.299Z,23.40
2018-09-20T08:37:16.546Z,23.50
2018-09-20T08:39:45.622Z,23.60
2018-09-20T08:42:13.792Z,23.50
2018-09-20T08:44:41.948Z,23.60
2018-09-20T08:47:10.104Z,23.60
2018-09-20T08:49:40.001Z,23.60
2018-09-20T08:52:08.163Z,23.60
2018-09-20T08:54:36.337Z,23.60
2018-09-20T08:57:05.400Z,23.60
2018-09-20T08:59:33.537Z,23.60
2018-09-20T09:02:01.750Z,23.70
2018-09-20T09:04:30.009Z,23.70
2018-09-20T09:06:58.257Z,23.80
2018-09-20T09:09:26.525Z,23.90
2018-09-20T09:11:54.723Z,24.00
2018-09-20T09:14:23.051Z,24.10
2018-09-20T09:16:51.227Z,24.30
2018-09-20T09:19:19.451Z,24.40
2018-09-20T09:21:47.847Z,24.50
2018-09-20T09:24:16.939Z,24.50
2018-09-20T09:26:45.119Z,24.70
2018-09-20T09:29:13.326Z,24.90
2018-09-20T09:31:41.518Z,25.20
2018-09-20T09:34:09.793Z,25.30
2018-09-20T09:36:38.023Z,25.40
2018-09-20T09:39:09.025Z,25.60
2018-09-20T09:41:38.260Z,25.70
2018-09-20T09:44:07.545Z,25.60
2018-09-20T09:46:37.055Z,25.50
2018-09-20T09:49:06.631Z,25.50
2018-09-20T09:51:35.427Z,25.50
2018-09-20T09:54:03.673Z,25.50
2018-09-20T09:56:31.950Z,25.40
2018-09-20T09:59:00.154Z,25.30
2018-09-20T10:01:28.367Z,25.30
2018-09-20T10:03:56.750Z,25.30
2018-09-20T10:06:24.963Z,25.30
2018-09-20T10:08:54.065Z,25.30
2018-09-20T10:11:22.500Z,25.20
2018-09-20T10:13:50.700Z,25.30
2018-09-20T10:16:18.875Z,25.40
2018-09-20T10:18:47.029Z,25.40
2018-09-20T10:21:16.989Z,25.40
2018-09-20T10:23:46.410Z,25.40
2018-09-20T10:26:14.581Z,25.50
2018-09-20T10:28:42.820Z,25.50
2018-09-20T10:31:11.030Z,25.60
2018-09-20T10:33:39.296Z,25.60
2018-09-20T10:36:08.384Z,25.60
2018-09-20T10:38:36.506Z,25.70
2018-09-20T10:41:04.769Z,25.70
2018-09-20T10:43:33.102Z,25.80
2018-09-20T10:46:03.471Z,25.80
2018-09-20T10:48:33.043Z,25.90
2018-09-20T10:51:01.328Z,25.90
2018-09-20T10:53:29.505Z,25.90
2018-09-20T10:55:59.290Z,25.90
2018-09-20T10:58:27.988Z,25.90
2018-09-20T11:00:56.117Z,25.90
2018-09-20T11:03:24.370Z,25.90
2018-09-20T11:05:54.019Z,25.90
2018-09-20T11:08:23.731Z,25.90
2018-09-20T11:10:51.928Z,26.00
2018-09-20T11:13:23.624Z,26.00
2018-09-20T11:15:51.816Z,26.10
2018-09-20T11:18:19.962Z,26.10
2018-09-20T11:20:48.126Z,26.20
2018-09-20T11:23:16.340Z,26.30
2018-09-20T11:25:49.661Z,26.20
2018-09-20T11:28:17.985Z,26.30
2018-09-20T11:30:46.183Z,26.30
2018-09-20T11:33:15.278Z,26.30
2018-09-20T11:35:43.984Z,26.30
2018-09-20T11:38:18.606Z,26.30
2018-09-20T11:40:46.744Z,26.30
2018-09-20T11:43:16.040Z,26.20
2018-09-20T11:45:49.702Z,26.20
2018-09-20T11:48:18.778Z,26.20
2018-09-20T11:50:47.054Z,26.20
2018-09-20T11:53:16.108Z,26.20
2018-09-20T11:55:44.388Z,26.20
2018-09-20T11:58:12.602Z,26.20
2018-09-20T12:00:41.398Z,26.20
2018-09-20T12:03:09.561Z,26.20
2018-09-20T12:05:38.354Z,26.20
2018-09-20T12:08:06.532Z,26.40
2018-09-20T12:10:35.992Z,26.50
2018-09-20T12:13:05.401Z,26.50
2018-09-20T12:15:33.876Z,26.60
2018-09-20T12:18:03.800Z,26.60
2018-09-20T12:20:31.986Z,26.70
2018-09-20T12:23:02.944Z,26.70
2018-09-20T12:25:32.866Z,26.70
2018-09-20T12:28:01.029Z,26.80
2018-09-20T12:30:29.973Z,26.80
2018-09-20T12:32:58.225Z,26.80
2018-09-20T12:35:27.390Z,26.80
2018-09-20T12:37:55.598Z,26.90
2018-09-20T12:40:24.204Z,26.90
2018-09-20T12:42:52.384Z,26.90
2018-09-20T12:45:20.543Z,27.00
2018-09-20T12:47:48.775Z,27.00
2018-09-20T12:50:20.617Z,27.10
2018-09-20T12:52:49.013Z,27.10
2018-09-20T12:55:19.456Z,27.10
2018-09-20T12:57:47.613Z,27.10
2018-09-20T13:00:17.409Z,27.10
2018-09-20T13:02:45.619Z,27.10
2018-09-20T13:05:14.113Z,27.10
2018-09-20T13:07:43.383Z,27.10
2018-09-20T13:10:13.091Z,27.10
2018-09-20T13:12:43.008Z,27.10
2018-09-20T13:15:11.189Z,27.10
2018-09-20T13:17:39.356Z,27.10
2018-09-20T13:20:07.522Z,27.10
2018-09-20T13:22:36.317Z,27.10
2018-09-20T13:25:04.525Z,27.10
2018-09-20T13:27:32.738Z,27.20
2018-09-20T13:30:00.964Z,27.10
2018-09-20T13:32:29.119Z,27.20
2018-09-20T13:34:57.942Z,27.10
2018-09-20T13:37:26.116Z,27.10
2018-09-20T13:39:54.897Z,27.20
2018-09-20T13:42:25.847Z,27.20
2018-09-20T13:44:56.994Z,27.30
2018-09-20T13:47:25.283Z,27.40
2018-09-20T13:49:54.487Z,27.30
2018-09-20T13:52:22.798Z,27.40
2018-09-20T13:54:50.983Z,27.40
2018-09-20T13:57:19.872Z,27.40
2018-09-20T13:59:48.043Z,27.40
2018-09-20T14:02:17.304Z,27.40
2018-09-20T14:04:45.996Z,27.40
2018-09-20T14:07:15.383Z,27.40
2018-09-20T14:09:43.574Z,27.30
2018-09-20T14:12:13.845Z,27.40
2018-09-20T14:14:42.126Z,27.40
2018-09-20T14:17:10.306Z,27.30
2018-09-20T14:19:38.498Z,27.30
2018-09-20T14:22:07.562Z,27.30
2018-09-20T14:24:36.589Z,27.30
2018-09-20T14:27:04.791Z,27.40
2018-09-20T14:29:32.942Z,27.60
2018-09-20T14:32:01.103Z,27.60
2018-09-20T14:34:29.286Z,27.60
2018-09-20T14:37:00.472Z,27.50
2018-09-20T14:39:28.709Z,27.50
2018-09-20T14:41:57.008Z,27.40
2018-09-20T14:44:25.296Z,27.40
2018-09-20T14:46:53.492Z,27.40
2018-09-20T14:49:21.638Z,27.40
2018-09-20T14:51:49.832Z,27.40
2018-09-20T14:54:19.136Z,27.40
2018-09-20T14:56:47.372Z,27.30
2018-09-20T14:59:16.338Z,27.30
2018-09-20T15:01:45.429Z,27.30
2018-09-20T15:04:13.622Z,27.20
2018-09-20T15:06:42.937Z,27.10
2018-09-20T15:09:12.852Z,27.10
2018-09-20T15:11:41.383Z,27.00
2018-09-20T15:14:10.078Z,27.10
2018-09-20T15:16:39.229Z,27.10
2018-09-20T15:19:07.367Z,27.10
2018-09-20T15:21:35.512Z,27.20
2018-09-20T15:24:03.880Z,27.20
2018-09-20T15:26:35.138Z,27.20
2018-09-20T15:29:03.327Z,27.10
2018-09-20T15:31:31.491Z,27.10
2018-09-20T15:33:59.669Z,27.10
2018-09-20T15:36:30.641Z,27.10
2018-09-20T15:38:58.933Z,27.00
2018-09-20T15:41:27.120Z,26.90
2018-09-20T15:43:55.608Z,26.80
2018-09-20T15:46:26.107Z,26.70
2018-09-20T15:48:54.268Z,26.70
2018-09-20T15:51:22.475Z,26.60
2018-09-20T15:53:50.661Z,26.60
2018-09-20T15:56:18.944Z,26.50
2018-09-20T15:58:47.089Z,26.50
2018-09-20T16:01:15.291Z,26.50
2018-09-20T16:03:43.479Z,26.40
2018-09-20T16:06:11.664Z,26.40
2018-09-20T16:08:43.524Z,26.40
2018-09-20T16:11:11.709Z,26.40
2018-09-20T16:13:42.719Z,26.40
2018-09-20T16:16:10.905Z,26.30
2018-09-20T16:18:39.030Z,26.20
2018-09-20T16:21:07.201Z,26.20
2018-09-20T16:23:35.483Z,26.10
2018-09-20T16:26:04.251Z,26.00
2018-09-20T16:32:49.312Z,25.80
2018-09-20T16:35:56.952Z,25.60
2018-09-20T16:38:49.127Z,25.40
2018-09-20T16:41:21.296Z,25.30
2018-09-20T16:43:49.673Z,25.10
2018-09-20T16:46:17.951Z,25.00
2018-09-20T16:48:46.069Z,24.80
2018-09-20T16:51:15.908Z,24.70
2018-09-20T16:53:46.505Z,24.60
2018-09-20T16:56:14.735Z,24.40
2018-09-20T16:58:48.475Z,24.30
2018-09-20T17:01:17.193Z,24.20
2018-09-20T17:03:45.707Z,24.10
2018-09-20T17:06:15.783Z,24.00
2018-09-20T17:08:44.324Z,23.90
2018-09-20T17:11:12.466Z,23.70
2018-09-20T17:13:40.673Z,23.70
2018-09-20T17:16:10.534Z,23.60
2018-09-20T17:18:42.557Z,23.50
2018-09-20T17:21:10.853Z,23.40
2018-09-20T17:23:39.595Z,23.40
2018-09-20T17:26:09.228Z,23.30
2018-09-20T17:31:39.461Z,23.10
2018-09-20T17:34:07.687Z,23.10
2018-09-20T17:36:40.905Z,23.00
2018-09-20T17:39:20.786Z,23.00
2018-09-20T17:41:50.048Z,22.90
2018-09-20T17:44:21.781Z,22.80
2018-09-20T17:46:49.938Z,22.80
2018-09-20T17:49:18.106Z,22.80
2018-09-20T17:51:46.979Z,22.70
2018-09-20T17:54:15.727Z,22.70
2018-09-20T17:56:48.091Z,22.70
2018-09-20T17:59:16.231Z,22.60
2018-09-20T18:01:44.393Z,22.60
2018-09-20T18:04:12.565Z,22.50
2018-09-20T18:06:40.730Z,22.50
2018-09-20T18:09:16.539Z,22.40
2018-09-20T18:11:46.150Z,22.40
2018-09-20T18:14:15.964Z,22.40
2018-09-20T18:16:44.146Z,22.30
2018-09-20T18:19:12.319Z,22.30
2018-09-20T18:21:40.504Z,22.30
2018-09-20T18:24:23.269Z,22.30
2018-09-20T18:26:51.515Z,22.30
2018-09-20T18:29:22.620Z,22.20
2018-09-20T18:31:50.837Z,22.20
2018-09-20T18:34:19.117Z,22.20
2018-09-20T18:36:47.304Z,22.10
2018-09-20T18:39:15.554Z,22.00
2018-09-20T18:41:45.168Z,22.00
2018-09-20T18:44:14.237Z,21.90
2018-09-20T18:46:42.599Z,21.90
2018-09-20T18:49:10.815Z,21.90
2018-09-20T18:51:39.789Z,21.80
2018-09-20T18:54:07.943Z,21.80
2018-09-20T18:56:36.793Z,21.80
2018-09-20T18:59:06.519Z,21.70
2018-09-20T19:01:34.739Z,21.70
2018-09-20T19:04:03.075Z,21.70
2018-09-20T19:06:31.231Z,21.60
2018-09-20T19:08:59.544Z,21.60
2018-09-20T19:11:27.727Z,21.60
2018-09-20T19:13:56.085Z,21.60
2018-09-20T19:16:24.242Z,21.60
2018-09-20T19:18:52.490Z,21.60
2018-09-20T19:21:20.687Z,21.60
2018-09-20T19:23:50.474Z,21.60
2018-09-20T19:26:18.754Z,21.60
2018-09-20T19:28:47.167Z,21.50
2018-09-20T19:31:15.486Z,21.50
2018-09-20T19:33:44.453Z,21.50
2018-09-20T19:36:13.213Z,21.40
2018-09-20T19:38:42.295Z,21.40
2018-09-20T19:41:11.111Z,21.40
2018-09-20T19:43:39.335Z,21.40
2018-09-20T19:46:08.658Z,21.30
2018-09-20T19:48:36.957Z,21.20
2018-09-20T19:51:05.635Z,21.20
2018-09-20T19:53:33.835Z,21.10
2018-09-20T19:56:02.561Z,21.00
2018-09-20T19:58:31.768Z,20.90
2018-09-20T20:01:10.757Z,20.90
2018-09-20T20:03:39.005Z,20.90
2018-09-20T20:06:09.733Z,20.80
2018-09-20T20:08:37.982Z,20.80
2018-09-20T20:11:06.148Z,20.70
2018-09-20T20:13:36.760Z,20.70
2018-09-20T20:16:04.916Z,20.60
2018-09-20T20:18:33.233Z,20.50
2018-09-20T20:21:02.736Z,20.50
2018-09-20T20:23:31.191Z,20.40
2018-09-20T20:25:59.715Z,20.40
2018-09-20T20:28:27.923Z,20.40
2018-09-20T20:30:58.571Z,20.40
2018-09-20T20:33:31.011Z,20.30
2018-09-20T20:35:59.695Z,20.30
2018-09-20T20:38:29.974Z,20.20
2018-09-20T20:40:59.148Z,20.20
2018-09-20T20:43:29.302Z,20.20
2018-09-20T20:45:57.443Z,20.10
2018-09-20T20:48:26.473Z,20.10
2018-09-20T20:50:56.227Z,20.10
2018-09-20T20:53:26.297Z,20.10
2018-09-20T20:55:56.321Z,20.10
2018-09-20T20:58:25.997Z,20.10
2018-09-20T21:00:54.194Z,20.10
2018-09-20T21:03:22.353Z,20.10
2018-09-20T21:05:51.549Z,20.00
2018-09-20T21:08:19.783Z,19.90
2018-09-20T21:10:47.916Z,19.90
2018-09-20T21:13:16.746Z,19.90
2018-09-20T21:15:44.973Z,19.80
2018-09-20T21:18:13.159Z,19.70
2018-09-20T21:20:41.394Z,19.70
2018-09-20T21:23:13.536Z,19.70
2018-09-20T21:25:46.550Z,19.60
2018-09-20T21:28:15.448Z,19.60
2018-09-20T21:30:43.757Z,19.60
2018-09-20T21:33:13.331Z,19.70
2018-09-20T21:35:41.540Z,19.60
2018-09-20T21:38:10.221Z,19.60
2018-09-20T21:40:38.398Z,19.50
2018-09-20T21:43:06.530Z,19.50
2018-09-20T21:45:35.501Z,19.50
2018-09-20T21:48:03.903Z,19.40
2018-09-20T21:50:38.062Z,19.40
2018-09-20T21:53:06.896Z,19.30
2018-09-20T21:55:35.069Z,19.30
2018-09-20T21:58:03.685Z,19.30
2018-09-20T22:00:33.784Z,19.20
2018-09-20T22:03:03.083Z,19.20
2018-09-20T22:05:33.791Z,19.20
2018-09-20T22:08:02.716Z,19.20
2018-09-20T22:10:32.430Z,19.20
2018-09-20T22:13:02.646Z,19.10
2018-09-20T22:15:32.927Z,19.10
2018-09-20T22:18:01.113Z,19.10
2018-09-20T22:20:30.654Z,19.10
2018-09-20T22:22:58.796Z,19.00
2018-09-20T22:25:31.200Z,19.00
2018-09-20T22:27:59.334Z,18.90
2018-09-20T22:30:27.540Z,18.90
2018-09-20T22:32:55.700Z,18.90
2018-09-20T22:35:23.875Z,18.90
2018-09-20T22:37:53.223Z,18.80
2018-09-20T22:40:21.411Z,18.80
2018-09-20T22:42:49.608Z,18.80
2018-09-20T22:45:17.805Z,18.70
2018-09-20T22:47:45.951Z,18.70
2018-09-20T22:50:14.156Z,18.60
2018-09-20T22:52:42.435Z,18.60
2018-09-20T22:55:10.812Z,18.60
2018-09-20T22:57:38.996Z,18.60
2018-09-20T23:00:07.199Z,18.60
2018-09-20T23:02:35.379Z,18.60
2018-09-20T23:05:03.544Z,18.60
2018-09-20T23:07:31.876Z,18.60
2018-09-20T23:10:00.070Z,18.50
2018-09-20T23:12:28.240Z,18.50
2018-09-20T23:14:56.392Z,18.50
2018-09-20T23:17:24.626Z,18.40
2018-09-20T23:19:52.831Z,18.40
2018-09-20T23:22:21.016Z,18.30
2018-09-20T23:24:49.187Z,18.30
2018-09-20T23:27:18.162Z,18.30
2018-09-20T23:29:46.345Z,18.30
2018-09-20T23:32:14.677Z,18.20
2018-09-20T23:34:42.829Z,18.20
2018-09-20T23:37:10.984Z,18.20
2018-09-20T23:39:39.182Z,18.20
2018-09-20T23:42:07.350Z,18.20
2018-09-20T23:44:35.524Z,18.20
2018-09-20T23:47:03.774Z,18.30
2018-09-20T23:49:31.988Z,18.20
2018-09-20T23:52:00.153Z,18.20
2018-09-20T23:54:28.306Z,18.20
2018-09-20T23:56:56.660Z,18.10
2018-09-20T23:59:25.040Z,18.10
